Time;durP1;ratioP1;P1;durP2;ratioP2;P2;SDS_P1;SDS_P2;PMS_P1;PMS_P2;Temp;Humidity;BMP_temperature;BMP_pressure;BME280_temperature;BME280_humidity;BME280_pressure;Samples;Min_cycle;Max_cycle;Signal;HPM_P1;HPM_P2
2021/01/21 00:01:06;;;;;;;2.05;1.85;;;5.80;80.60;;;;;;5107329;27;20131;-75
2021/01/21 00:03:33;;;;;;;2.13;1.58;;;5.90;79.70;;;;;;5089227;28;20126;-74
2021/01/21 00:06:00;;;;;;;2.15;1.90;;;5.90;77.20;;;;;;5119642;27;20054;-75
2021/01/21 00:08:28;;;;;;;3.33;1.83;;;6.10;75.70;;;;;;5124851;27;20165;-76
2021/01/21 00:10:59;;;;;;;3.50;2.03;;;6.20;75.60;;;;;;5111410;27;20071;-76
2021/01/21 00:13:28;;;;;;;3.33;2.00;;;6.10;76.80;;;;;;5106672;27;20043;-75
2021/01/21 00:15:54;;;;;;;2.38;1.95;;;6.10;76.60;;;;;;5118324;27;20047;-75
2021/01/21 00:18:21;;;;;;;3.30;2.55;;;6.10;77.40;;;;;;5109816;27;20070;-75
2021/01/21 00:20:50;;;;;;;3.47;1.52;;;6.00;78.30;;;;;;5119040;27;20136;-74
2021/01/21 00:23:16;;;;;;;2.40;1.70;;;5.90;78.30;;;;;;5112488;27;20046;-75
2021/01/21 00:25:43;;;;;;;4.97;2.20;;;5.70;82.70;;;;;;5125704;27;20122;-75
2021/01/21 00:28:09;;;;;;;7.28;2.60;;;5.50;83.60;;;;;;5124513;27;20130;-75
2021/01/21 00:30:35;;;;;;;4.38;2.13;;;5.40;85.10;;;;;;5125430;27;20078;-75
2021/01/21 00:33:02;;;;;;;3.03;2.15;;;5.30;89.50;;;;;;5114217;27;20082;-74
2021/01/21 00:35:35;;;;;;;2.80;2.25;;;5.10;91.90;;;;;;5123664;27;20078;-74
2021/01/21 00:38:06;;;;;;;5.75;2.42;;;5.00;93.20;;;;;;5126153;27;20135;-75
2021/01/21 00:40:35;;;;;;;3.80;2.47;;;4.90;92.90;;;;;;5097419;27;20513;-75
2021/01/21 00:43:01;;;;;;;4.85;2.85;;;4.90;95.10;;;;;;5103672;28;20135;-74
2021/01/21 00:45:28;;;;;;;3.75;2.53;;;4.90;94.40;;;;;;5088688;28;20457;-75
2021/01/21 00:47:54;;;;;;;3.75;2.42;;;4.90;94.20;;;;;;5105376;28;20385;-74
2021/01/21 00:50:22;;;;;;;2.53;1.98;;;4.80;94.60;;;;;;5105418;28;20458;-76
2021/01/21 00:52:48;;;;;;;4.38;3.08;;;4.80;96.60;;;;;;5105266;28;20047;-75
2021/01/21 00:55:15;;;;;;;4.85;3.08;;;4.70;96.30;;;;;;5114350;27;20134;-75
2021/01/21 00:57:41;;;;;;;3.97;2.70;;;4.60;97.40;;;;;;5114129;27;20147;-75
2021/01/21 01:00:10;;;;;;;4.38;2.70;;;4.60;97.70;;;;;;5105125;28;20039;-76
2021/01/21 01:02:37;;;;;;;4.47;2.30;;;4.50;99.90;;;;;;5106088;28;20136;-75
2021/01/21 01:05:07;;;;;;;4.50;2.75;;;4.40;99.90;;;;;;5093180;28;20353;-75
2021/01/21 01:07:34;;;;;;;4.13;2.60;;;4.40;99.90;;;;;;5102251;28;20074;-75
2021/01/21 01:10:00;;;;;;;5.25;2.55;;;4.40;99.90;;;;;;5104569;28;20047;-75
2021/01/21 01:12:27;;;;;;;5.45;2.67;;;4.40;99.90;;;;;;5096975;28;20047;-75
2021/01/21 01:14:54;;;;;;;5.40;2.88;;;4.50;99.00;;;;;;5106155;28;20134;-75
2021/01/21 01:17:21;;;;;;;4.22;2.40;;;4.50;99.40;;;;;;5105176;28;20130;-75
2021/01/21 01:19:50;;;;;;;2.17;1.98;;;4.50;98.10;;;;;;5104447;28;20051;-75
2021/01/21 01:22:17;;;;;;;3.53;2.25;;;4.70;96.00;;;;;;5104319;28;20109;-75
2021/01/21 01:24:45;;;;;;;4.60;2.30;;;5.00;94.50;;;;;;5083691;28;20083;-74
2021/01/21 01:27:11;;;;;;;3.95;2.00;;;5.20;93.80;;;;;;5101661;28;20134;-75
2021/01/21 01:29:40;;;;;;;3.47;2.05;;;5.50;90.10;;;;;;5105644;28;20143;-74
2021/01/21 01:32:07;;;;;;;2.30;2.03;;;5.90;84.20;;;;;;5105486;27;20123;-74
2021/01/21 01:34:34;;;;;;;5.25;1.88;;;6.10;82.60;;;;;;5103683;28;20070;-75
2021/01/21 01:37:03;;;;;;;2.08;1.60;;;6.20;81.20;;;;;;5104450;28;20122;-75
2021/01/21 01:39:30;;;;;;;2.03;1.77;;;6.30;80.90;;;;;;5104031;28;20087;-75
2021/01/21 01:41:57;;;;;;;2.30;1.98;;;6.20;82.50;;;;;;5099759;28;20496;-74
2021/01/21 01:44:23;;;;;;;4.43;1.95;;;6.10;82.70;;;;;;5102761;28;20265;-75
2021/01/21 01:46:50;;;;;;;2.28;1.90;;;6.10;83.40;;;;;;5104370;28;20092;-75
2021/01/21 01:49:18;;;;;;;4.10;2.30;;;6.10;83.10;;;;;;5104244;28;20062;-75
2021/01/21 01:51:45;;;;;;;2.90;1.90;;;6.00;82.20;;;;;;5104850;28;20574;-75
2021/01/21 01:54:16;;;;;;;5.15;1.90;;;6.00;83.70;;;;;;5105266;28;20052;-75
2021/01/21 01:56:45;;;;;;;1.83;1.65;;;6.00;84.20;;;;;;5123385;27;20123;-74
2021/01/21 01:59:12;;;;;;;2.50;2.10;;;6.00;83.60;;;;;;5109976;27;20147;-75
2021/01/21 02:01:42;;;;;;;3.80;2.10;;;5.90;84.50;;;;;;5110440;27;20122;-74
2021/01/21 02:04:11;;;;;;;2.22;2.00;;;5.90;84.60;;;;;;5112399;28;20495;-75
2021/01/21 02:06:37;;;;;;;4.68;2.10;;;5.80;84.70;;;;;;5123503;28;20178;-74
2021/01/21 02:09:06;;;;;;;2.28;1.80;;;5.90;85.60;;;;;;5113186;28;20073;-75
2021/01/21 02:11:52;;;;;;;4.40;2.15;;;5.90;83.10;;;;;;5108205;28;20043;-75
2021/01/21 02:14:43;;;;;;;2.25;2.05;;;5.90;83.90;;;;;;5113513;28;20164;-75
2021/01/21 02:17:19;;;;;;;1.73;1.63;;;6.00;81.80;;;;;;5098774;28;20126;-76
2021/01/21 02:19:57;;;;;;;2.25;1.60;;;6.20;78.80;;;;;;5123475;27;20051;-74
2021/01/21 02:23:09;;;;;;;1.70;1.60;;;6.40;76.70;;;;;;5117046;28;20205;-75
2021/01/21 02:25:57;;;;;;;4.70;1.50;;;6.50;76.00;;;;;;5114039;28;20146;-75
2021/01/21 02:28:35;;;;;;;4.75;1.55;;;6.60;74.10;;;;;;5122746;28;20039;-75
2021/01/21 02:31:07;;;;;;;1.77;1.67;;;6.70;73.00;;;;;;5119368;28;20196;-74
2021/01/21 02:33:56;;;;;;;1.90;1.50;;;6.90;71.60;;;;;;5117341;28;20102;-74
2021/01/21 02:36:41;;;;;;;3.45;1.35;;;6.90;71.30;;;;;;5114555;28;20079;-75
2021/01/21 02:39:10;;;;;;;2.40;1.40;;;6.80;72.30;;;;;;5121623;28;20390;-75
2021/01/21 02:41:38;;;;;;;2.60;1.40;;;6.70;73.00;;;;;;5113742;28;20074;-75
2021/01/21 02:44:05;;;;;;;3.08;1.60;;;6.50;76.50;;;;;;5118562;27;20130;-75
2021/01/21 02:46:31;;;;;;;5.05;1.80;;;6.30;77.70;;;;;;5096265;28;20093;-76
2021/01/21 02:48:58;;;;;;;1.85;1.65;;;6.10;79.80;;;;;;5107464;28;20050;-75
2021/01/21 02:52:05;;;;;;;5.03;2.40;;;6.00;81.70;;;;;;5114739;28;20050;-75
2021/01/21 02:54:46;;;;;;;2.20;1.80;;;5.90;83.00;;;;;;5111296;28;20138;-75
2021/01/21 02:57:23;;;;;;;2.13;1.65;;;5.90;84.30;;;;;;5119147;27;20090;-74
2021/01/21 02:59:50;;;;;;;1.73;1.63;;;5.90;84.00;;;;;;5113483;28;20104;-74
2021/01/21 03:02:21;;;;;;;3.10;1.95;;;5.90;84.80;;;;;;5109714;28;20481;-74
2021/01/21 03:04:50;;;;;;;3.53;1.83;;;5.80;86.30;;;;;;5107176;28;20047;-74
2021/01/21 03:07:22;;;;;;;2.10;1.77;;;5.80;89.00;;;;;;5121482;28;20150;-75
2021/01/21 03:09:49;;;;;;;2.20;1.80;;;5.90;85.00;;;;;;5121817;28;20096;-74
2021/01/21 03:12:25;;;;;;;2.92;1.65;;;6.00;81.90;;;;;;5123642;28;20285;-76
2021/01/21 03:14:55;;;;;;;5.25;1.92;;;6.30;78.70;;;;;;5110782;27;20052;-74
2021/01/21 03:17:24;;;;;;;2.85;1.60;;;6.60;75.40;;;;;;5126136;27;20469;-75
2021/01/21 03:19:51;;;;;;;2.58;1.73;;;6.90;72.70;;;;;;5126367;27;20101;-75
2021/01/21 03:22:18;;;;;;;1.60;1.45;;;7.10;72.30;;;;;;5100936;27;20126;-74
2021/01/21 03:24:45;;;;;;;2.42;1.55;;;7.20;71.00;;;;;;5124624;27;20553;-75
2021/01/21 03:27:11;;;;;;;3.05;1.70;;;7.30;70.20;;;;;;5120672;27;20100;-74
2021/01/21 03:29:38;;;;;;;1.77;1.52;;;7.30;70.10;;;;;;5113082;27;20086;-74
2021/01/21 03:32:05;;;;;;;5.70;1.70;;;7.20;70.70;;;;;;5108530;27;20076;-74
2021/01/21 03:34:34;;;;;;;3.00;1.63;;;7.20;70.50;;;;;;5119496;27;20168;-75
2021/01/21 03:37:01;;;;;;;1.83;1.45;;;7.10;72.10;;;;;;5102645;27;20115;-76
2021/01/21 03:39:32;;;;;;;3.58;1.67;;;7.10;71.80;;;;;;5115466;27;20457;-75
2021/01/21 03:42:02;;;;;;;3.72;1.70;;;7.10;72.20;;;;;;5110530;27;20043;-74
2021/01/21 03:44:29;;;;;;;5.35;1.58;;;6.90;73.50;;;;;;5116480;27;20047;-75
2021/01/21 03:46:58;;;;;;;1.95;1.75;;;7.00;73.30;;;;;;5119635;27;20075;-75
2021/01/21 03:49:27;;;;;;;3.17;1.67;;;6.90;74.30;;;;;;5104641;28;20250;-76
2021/01/21 03:51:56;;;;;;;2.85;1.60;;;6.80;74.50;;;;;;5106100;28;20051;-74
2021/01/21 03:54:23;;;;;;;1.80;1.55;;;6.90;73.50;;;;;;5106534;28;20121;-76
2021/01/21 03:56:49;;;;;;;2.72;1.70;;;6.90;73.50;;;;;;5114050;27;20451;-74
2021/01/21 03:59:15;;;;;;;3.40;1.75;;;6.80;73.80;;;;;;5116720;27;20139;-74
2021/01/21 04:01:44;;;;;;;5.45;2.00;;;6.80;73.70;;;;;;5103392;27;20100;-74
2021/01/21 04:04:10;;;;;;;4.75;1.88;;;6.90;73.50;;;;;;5105535;28;20100;-74
2021/01/21 04:06:39;;;;;;;3.13;1.40;;;6.80;73.60;;;;;;5105231;28;20134;-75
2021/01/21 04:09:06;;;;;;;2.22;1.75;;;6.80;74.10;;;;;;5107461;28;20116;-75
2021/01/21 04:11:33;;;;;;;3.35;1.88;;;6.70;74.50;;;;;;5104715;28;20234;-75
2021/01/21 04:14:00;;;;;;;3.15;1.52;;;6.70;74.40;;;;;;5107837;28;20055;-73
2021/01/21 04:16:26;;;;;;;2.10;1.42;;;6.80;74.00;;;;;;5105146;28;20093;-74
2021/01/21 04:18:55;;;;;;;3.33;1.63;;;6.90;73.10;;;;;;5089587;28;20052;-74
2021/01/21 04:21:22;;;;;;;1.63;1.45;;;7.10;72.50;;;;;;5087907;28;20466;-75
2021/01/21 04:23:54;;;;;;;2.10;1.55;;;7.20;71.40;;;;;;5106726;28;20496;-74
2021/01/21 04:26:20;;;;;;;;;;;7.10;72.10;;;;;;5103884;28;20043;-75
2021/01/21 04:28:47;;;;;;;1.55;1.45;;;7.00;72.20;;;;;;5105300;28;19941;-75
2021/01/21 04:31:13;;;;;;;2.05;1.50;;;7.00;73.00;;;;;;5113015;27;20083;-75
2021/01/21 04:33:39;;;;;;;3.15;1.50;;;7.00;73.00;;;;;;5111962;27;20047;-74
2021/01/21 04:36:06;;;;;;;1.88;1.55;;;7.00;73.70;;;;;;5120413;27;20122;-75
2021/01/21 04:38:35;;;;;;;3.30;1.90;;;6.90;73.80;;;;;;5114517;27;20106;-75
2021/01/21 04:41:04;;;;;;;2.85;1.70;;;6.80;75.00;;;;;;5126476;27;20046;-74
2021/01/21 04:43:31;;;;;;;1.70;1.55;;;6.80;75.40;;;;;;5115344;27;20075;-75
2021/01/21 04:45:57;;;;;;;3.42;1.65;;;6.80;76.80;;;;;;5108681;27;20092;-74
2021/01/21 04:48:28;;;;;;;1.48;1.38;;;6.80;74.70;;;;;;5117011;27;20090;-75
2021/01/21 04:50:55;;;;;;;1.42;1.33;;;6.80;75.70;;;;;;5125688;27;20039;-75
2021/01/21 04:53:25;;;;;;;1.50;1.40;;;6.80;75.00;;;;;;5120644;27;20567;-75
2021/01/21 04:56:13;;;;;;;5.13;1.60;;;6.80;75.90;;;;;;5115824;27;20092;-75
2021/01/21 04:58:49;;;;;;;5.63;2.10;;;6.80;75.70;;;;;;5119135;27;20092;-74
2021/01/21 05:01:16;;;;;;;3.03;1.48;;;6.80;75.10;;;;;;5099507;27;20119;-74
2021/01/21 05:03:43;;;;;;;2.83;1.35;;;6.90;74.40;;;;;;5118637;27;20508;-75
2021/01/21 05:06:10;;;;;;;1.80;1.50;;;6.90;74.90;;;;;;5124562;27;20050;-75
2021/01/21 05:08:39;;;;;;;2.30;1.38;;;6.90;75.30;;;;;;5118164;27;20134;-76
2021/01/21 05:11:05;;;;;;;1.63;1.33;;;6.90;75.30;;;;;;5122899;27;20444;-76
2021/01/21 05:13:32;;;;;;;1.60;1.50;;;7.00;74.00;;;;;;5121572;27;20052;-75
2021/01/21 05:15:59;;;;;;;2.67;1.30;;;7.00;74.00;;;;;;5119275;27;20154;-74
2021/01/21 05:18:32;;;;;;;3.38;1.20;;;7.10;74.30;;;;;;5125111;27;20082;-77
2021/01/21 05:21:02;;;;;;;1.70;1.38;;;7.10;73.00;;;;;;5110945;27;20047;-75
2021/01/21 05:23:29;;;;;;;1.90;1.40;;;7.20;72.00;;;;;;5124980;27;20047;-76
2021/01/21 05:25:56;;;;;;;1.55;1.42;;;7.10;73.00;;;;;;5117956;27;20051;-78
2021/01/21 05:28:25;;;;;;;3.70;1.45;;;7.10;72.90;;;;;;5120449;27;20063;-78
2021/01/21 05:30:54;;;;;;;2.38;1.42;;;7.10;72.40;;;;;;5116283;27;20070;-78
2021/01/21 05:33:21;;;;;;;1.30;1.20;;;7.00;73.70;;;;;;5107050;27;20058;-77
2021/01/21 05:35:52;;;;;;;2.33;1.27;;;6.90;73.80;;;;;;5104400;28;20055;-78
2021/01/21 05:38:20;;;;;;;2.00;1.20;;;7.00;73.10;;;;;;5104319;28;20116;-79
2021/01/21 05:40:47;;;;;;;1.58;1.38;;;6.90;73.90;;;;;;5102335;28;20035;-78
2021/01/21 05:43:14;;;;;;;1.83;1.42;;;6.80;74.90;;;;;;5093571;28;20039;-78
2021/01/21 05:45:47;;;;;;;2.28;1.60;;;6.80;75.20;;;;;;5092335;28;20051;-78
2021/01/21 05:48:20;;;;;;;3.33;1.60;;;6.80;75.50;;;;;;5105725;28;20056;-78
2021/01/21 05:50:47;;;;;;;1.73;1.38;;;6.70;75.80;;;;;;5104377;28;20054;-78
2021/01/21 05:53:17;;;;;;;2.90;1.40;;;6.90;74.60;;;;;;5104010;28;20115;-77
2021/01/21 05:55:43;;;;;;;5.80;1.75;;;6.90;75.00;;;;;;5104194;28;20074;-76
2021/01/21 05:58:10;;;;;;;1.40;1.20;;;6.90;73.70;;;;;;5103273;28;20044;-76
2021/01/21 06:00:38;;;;;;;1.77;1.52;;;7.00;73.50;;;;;;5103276;28;20055;-76
2021/01/21 06:03:09;;;;;;;2.17;1.52;;;7.20;71.40;;;;;;5096345;28;20041;-76
2021/01/21 06:05:40;;;;;;;4.78;1.60;;;7.20;71.70;;;;;;5100505;28;20093;-75
2021/01/21 06:08:06;;;;;;;1.70;1.30;;;7.10;72.00;;;;;;5088010;28;20139;-77
2021/01/21 06:10:34;;;;;;;1.83;1.50;;;7.20;71.20;;;;;;5089246;28;20036;-74
2021/01/21 06:13:05;;;;;;;1.77;1.40;;;7.10;71.60;;;;;;5095498;28;20044;-74
2021/01/21 06:15:32;;;;;;;1.67;1.30;;;7.30;70.40;;;;;;5105624;28;20085;-74
2021/01/21 06:17:59;;;;;;;2.20;1.63;;;7.50;68.90;;;;;;5103322;28;20393;-74
2021/01/21 06:20:26;;;;;;;3.38;1.50;;;7.40;69.20;;;;;;5102091;28;20040;-75
2021/01/21 06:22:56;;;;;;;1.65;1.30;;;7.50;68.40;;;;;;5098286;28;20068;-73
2021/01/21 06:25:24;;;;;;;1.52;1.42;;;7.50;67.90;;;;;;5099386;28;20052;-75
2021/01/21 06:27:54;;;;;;;2.72;1.27;;;7.70;67.60;;;;;;5096492;28;20047;-74
2021/01/21 06:30:21;;;;;;;1.92;1.48;;;7.70;67.30;;;;;;5102604;28;20040;-75
2021/01/21 06:33:04;;;;;;;3.72;1.25;;;7.80;66.60;;;;;;5104234;28;20059;-74
2021/01/21 06:35:44;;;;;;;1.80;1.27;;;8.00;66.20;;;;;;5094381;28;20051;-75
2021/01/21 06:38:15;;;;;;;1.88;1.50;;;8.10;66.00;;;;;;5103021;28;20075;-75
2021/01/21 06:40:47;;;;;;;1.40;1.20;;;8.10;65.80;;;;;;5103750;28;20054;-74
2021/01/21 06:43:28;;;;;;;1.80;1.63;;;8.20;66.20;;;;;;5102029;28;20119;-74
2021/01/21 06:45:58;;;;;;;2.55;1.35;;;8.20;66.80;;;;;;5104811;28;20315;-74
2021/01/21 06:48:25;;;;;;;2.70;1.40;;;8.10;66.60;;;;;;5104034;28;20075;-75
2021/01/21 06:50:53;;;;;;;2.80;1.10;;;8.10;67.50;;;;;;5104908;28;20573;-75
2021/01/21 06:53:22;;;;;;;3.17;1.65;;;8.10;69.00;;;;;;5101440;28;20127;-75
2021/01/21 06:55:50;;;;;;;2.15;1.52;;;8.10;70.10;;;;;;5095570;28;20071;-74
2021/01/21 06:58:51;;;;;;;3.00;1.70;;;8.10;72.10;;;;;;5099257;27;20087;-74
2021/01/21 07:01:33;;;;;;;2.53;1.50;;;8.00;75.10;;;;;;5097534;28;20048;-74
2021/01/21 07:04:17;;;;;;;2.08;1.23;;;8.00;78.40;;;;;;5122209;27;20042;-74
2021/01/21 07:07:00;;;;;;;1.55;1.30;;;8.10;82.50;;;;;;5107273;28;20516;-75
2021/01/21 07:09:26;;;;;;;2.92;1.40;;;7.90;86.50;;;;;;5105500;28;20058;-75
2021/01/21 07:11:57;;;;;;;1.63;1.30;;;7.80;91.10;;;;;;5096389;28;20048;-74
2021/01/21 07:14:30;;;;;;;1.70;1.30;;;7.80;93.30;;;;;;5107048;28;20070;-75
2021/01/21 07:17:01;;;;;;;1.85;1.40;;;7.70;96.60;;;;;;5101318;28;20510;-74
2021/01/21 07:19:32;;;;;;;;;;;7.80;98.40;;;;;;5097963;28;20127;-75
2021/01/21 07:21:58;;;;;;;1.45;1.20;;;7.90;98.80;;;;;;5104648;28;19972;-74
2021/01/21 07:24:27;;;;;;;1.73;1.48;;;8.00;97.90;;;;;;5103147;28;20070;-75
2021/01/21 07:27:02;;;;;;;2.85;1.20;;;7.80;99.70;;;;;;5106082;28;20101;-73
2021/01/21 07:29:37;;;;;;;1.63;1.52;;;7.80;99.80;;;;;;5106890;28;20434;-75
2021/01/21 07:32:05;;;;;;;1.35;1.25;;;7.80;99.90;;;;;;5105370;27;20040;-75
2021/01/21 07:34:44;;;;;;;1.55;1.40;;;7.80;99.90;;;;;;5099967;28;20054;-76
2021/01/21 07:37:17;;;;;;;1.83;1.13;;;7.90;99.90;;;;;;5107655;28;20508;-74
2021/01/21 07:40:07;;;;;;;;;;;7.80;99.90;;;;;;5105146;28;20120;-75
2021/01/21 07:42:33;;;;;;;4.63;1.35;;;7.70;99.90;;;;;;5092463;28;19924;-74
2021/01/21 07:45:03;;;;;;;3.22;1.60;;;7.70;99.90;;;;;;5106409;28;20046;-74
2021/01/21 07:47:37;;;;;;;2.90;1.17;;;7.70;99.90;;;;;;5105251;28;20047;-75
2021/01/21 07:50:19;;;;;;;1.83;1.45;;;7.70;99.90;;;;;;5108201;27;20143;-75
2021/01/21 07:52:53;;;;;;;1.60;1.30;;;7.60;99.90;;;;;;5100711;28;20602;-74
2021/01/21 07:55:35;;;;;;;3.22;1.58;;;7.60;99.90;;;;;;5101861;28;20128;-75
2021/01/21 07:58:14;;;;;;;;;;;7.60;99.90;;;;;;5105854;28;20108;-75
2021/01/21 08:00:41;;;;;;;1.63;1.33;;;7.60;99.90;;;;;;5105583;28;19926;-75
2021/01/21 08:03:10;;;;;;;4.13;1.30;;;7.60;99.90;;;;;;5106871;28;20069;-74
2021/01/21 08:05:37;;;;;;;2.22;1.70;;;7.80;99.90;;;;;;5083889;28;20058;-76
2021/01/21 08:08:06;;;;;;;1.58;1.30;;;7.90;99.90;;;;;;5103553;27;20105;-74
2021/01/21 08:10:36;;;;;;;1.73;1.00;;;7.90;99.90;;;;;;5105655;28;20518;-75
2021/01/21 08:13:14;;;;;;;1.15;1.05;;;7.90;99.90;;;;;;5106583;28;20517;-75
2021/01/21 08:15:41;;;;;;;2.97;1.20;;;7.80;99.90;;;;;;5106709;28;20051;-75
2021/01/21 08:18:15;;;;;;;1.40;1.30;;;7.80;99.90;;;;;;5106256;28;20087;-76
2021/01/21 08:20:44;;;;;;;1.48;1.25;;;7.90;99.90;;;;;;5104576;28;20047;-75
2021/01/21 08:23:15;;;;;;;2.13;1.20;;;7.90;99.90;;;;;;5106960;28;20051;-75
2021/01/21 08:25:50;;;;;;;2.90;1.02;;;8.00;99.90;;;;;;5092606;28;20044;-75
2021/01/21 08:28:19;;;;;;;1.30;1.10;;;8.00;99.90;;;;;;5099249;28;20058;-76
2021/01/21 08:30:49;;;;;;;1.73;1.35;;;8.00;99.90;;;;;;5104437;27;20461;-75
2021/01/21 08:33:27;;;;;;;1.00;1.00;;;8.20;99.90;;;;;;5107330;27;20085;-76
2021/01/21 08:35:59;;;;;;;1.80;1.20;;;8.30;99.90;;;;;;5105277;28;20150;-75
2021/01/21 08:38:28;;;;;;;;;;;8.40;99.90;;;;;;5104948;28;20632;-75
2021/01/21 08:40:56;;;;;;;1.52;1.30;;;8.50;99.90;;;;;;5105179;28;19985;-75
2021/01/21 08:43:24;;;;;;;2.05;1.10;;;8.50;99.90;;;;;;5105957;28;20082;-74
2021/01/21 08:45:53;;;;;;;1.73;0.98;;;8.60;99.90;;;;;;5099603;28;20204;-74
2021/01/21 08:48:32;;;;;;;1.63;1.15;;;8.30;99.90;;;;;;5102114;28;20151;-75
2021/01/21 08:50:59;;;;;;;1.23;1.10;;;8.20;99.90;;;;;;5104878;28;20126;-74
2021/01/21 08:53:34;;;;;;;2.05;1.20;;;8.20;99.90;;;;;;5101738;28;20044;-75
2021/01/21 08:56:13;;;;;;;1.50;1.00;;;8.30;99.90;;;;;;5071325;28;20155;-76
2021/01/21 08:58:39;;;;;;;1.33;1.10;;;8.10;99.90;;;;;;5089051;28;20043;-73
2021/01/21 09:01:09;;;;;;;1.23;1.10;;;8.00;99.90;;;;;;5100770;28;20048;-75
2021/01/21 09:03:40;;;;;;;4.18;1.20;;;8.20;99.90;;;;;;5104247;28;20043;-75
2021/01/21 09:06:08;;;;;;;1.23;1.13;;;8.50;99.90;;;;;;5105293;28;20082;-75
2021/01/21 09:08:56;;;;;;;1.67;1.15;;;8.60;99.90;;;;;;5106027;28;20055;-75
2021/01/21 09:11:40;;;;;;;1.35;1.10;;;8.70;99.90;;;;;;5102541;28;20070;-75
2021/01/21 09:14:13;;;;;;;1.83;1.13;;;8.80;99.90;;;;;;5093733;28;20109;-75
2021/01/21 09:16:59;;;;;;;1.38;1.15;;;9.00;99.40;;;;;;5086135;28;20059;-74
2021/01/21 09:19:26;;;;;;;0.98;0.98;;;9.10;98.30;;;;;;5101089;28;20397;-75
2021/01/21 09:22:04;;;;;;;1.52;1.20;;;9.30;97.60;;;;;;5101097;28;20035;-74
2021/01/21 09:24:34;;;;;;;1.75;1.10;;;9.20;98.60;;;;;;5097796;28;20043;-75
2021/01/21 09:27:07;;;;;;;1.25;1.15;;;9.40;97.70;;;;;;5097330;28;20494;-74
2021/01/21 09:30:13;;;;;;;1.63;1.20;;;9.60;97.70;;;;;;5104519;28;20540;-75
2021/01/21 09:32:55;;;;;;;3.25;1.30;;;9.90;95.10;;;;;;5103891;27;20031;-75
2021/01/21 09:35:23;;;;;;;;;;;9.70;95.50;;;;;;5086957;28;20039;-75
2021/01/21 09:37:59;;;;;;;1.13;0.90;;;9.30;98.80;;;;;;5104237;28;19919;-75
2021/01/21 09:40:28;;;;;;;1.48;0.90;;;9.20;99.90;;;;;;5104603;28;20044;-75
2021/01/21 09:43:02;;;;;;;2.13;1.00;;;10.00;96.10;;;;;;5106284;28;20444;-75
2021/01/21 09:45:30;;;;;;;0.80;0.80;;;10.20;94.40;;;;;;5104749;28;20047;-75
2021/01/21 09:47:59;;;;;;;0.85;0.85;;;10.40;93.60;;;;;;5101130;28;20589;-74
2021/01/21 09:50:27;;;;;;;1.52;1.00;;;10.90;90.60;;;;;;5104465;28;20043;-74
2021/01/21 09:52:56;;;;;;;1.38;0.85;;;11.30;87.00;;;;;;5106122;28;20049;-74
2021/01/21 09:55:22;;;;;;;1.08;0.82;;;11.40;84.50;;;;;;5098943;28;20054;-75
2021/01/21 09:57:50;;;;;;;0.80;0.80;;;11.50;84.90;;;;;;5105695;28;20047;-74
2021/01/21 10:00:18;;;;;;;0.70;0.70;;;11.50;82.60;;;;;;5104037;28;20047;-74
2021/01/21 10:02:44;;;;;;;2.30;0.93;;;11.50;83.60;;;;;;5105556;28;20058;-75
2021/01/21 10:05:16;;;;;;;1.75;1.00;;;11.70;83.10;;;;;;5105099;28;20050;-75
2021/01/21 10:07:43;;;;;;;1.37;0.80;;;11.80;80.70;;;;;;5106590;28;20488;-74
2021/01/21 10:10:09;;;;;;;2.63;1.00;;;11.80;80.00;;;;;;5103129;28;20062;-75
2021/01/21 10:12:39;;;;;;;0.85;0.82;;;11.80;81.70;;;;;;5104922;28;20046;-75
2021/01/21 10:15:08;;;;;;;1.30;0.90;;;12.20;80.20;;;;;;5104776;28;20067;-72
2021/01/21 10:18:19;;;;;;;0.80;0.80;;;12.30;77.50;;;;;;5108087;28;20043;-75
2021/01/21 10:20:49;;;;;;;0.85;0.70;;;12.60;76.30;;;;;;5113068;27;20044;-75
2021/01/21 10:23:16;;;;;;;1.38;0.90;;;12.50;75.00;;;;;;5102432;28;20055;-74
2021/01/21 10:25:42;;;;;;;1.08;0.98;;;12.50;74.40;;;;;;5108793;28;20062;-75
2021/01/21 10:28:09;;;;;;;2.95;1.10;;;11.90;78.60;;;;;;5109322;27;20178;-74
2021/01/21 10:30:40;;;;;;;1.27;1.02;;;11.30;83.20;;;;;;5105472;28;20070;-75
2021/01/21 10:33:09;;;;;;;1.23;1.20;;;11.00;89.50;;;;;;5103448;28;20039;-74
2021/01/21 10:35:39;;;;;;;1.27;1.10;;;11.00;89.70;;;;;;5108651;27;20473;-75
2021/01/21 10:38:07;;;;;;;1.67;1.20;;;11.50;86.40;;;;;;5107607;28;20054;-74
2021/01/21 10:40:34;;;;;;;1.17;1.08;;;11.30;89.80;;;;;;5106752;28;20048;-74
2021/01/21 10:43:05;;;;;;;4.50;1.40;;;11.00;93.70;;;;;;5106519;28;20096;-73
2021/01/21 10:45:34;;;;;;;1.27;1.10;;;11.20;95.40;;;;;;5103199;28;20324;-74
2021/01/21 10:48:03;;;;;;;2.15;1.05;;;11.60;95.10;;;;;;5107971;28;20035;-74
2021/01/21 10:50:34;;;;;;;1.42;0.95;;;11.90;93.50;;;;;;5106216;28;20130;-74
2021/01/21 10:53:01;;;;;;;1.53;1.07;;;11.20;99.90;;;;;;5112685;27;20111;-74
2021/01/21 10:55:28;;;;;;;1.38;1.02;;;11.20;99.20;;;;;;5107632;27;20055;-75
2021/01/21 10:57:55;;;;;;;1.70;1.17;;;11.50;99.90;;;;;;5107150;28;20529;-75
2021/01/21 11:00:22;;;;;;;3.67;1.08;;;11.30;99.90;;;;;;5106482;28;20051;-75
2021/01/21 11:02:51;;;;;;;1.27;1.10;;;11.20;99.80;;;;;;5108501;28;20058;-75
2021/01/21 11:05:18;;;;;;;1.98;1.30;;;11.00;99.90;;;;;;5107769;28;20484;-74
2021/01/21 11:07:46;;;;;;;1.23;1.10;;;10.90;99.90;;;;;;5106822;28;20067;-74
2021/01/21 11:10:16;;;;;;;3.63;1.35;;;10.60;99.90;;;;;;5107519;28;20059;-73
2021/01/21 11:12:47;;;;;;;2.50;1.40;;;10.20;99.90;;;;;;5107754;28;20460;-74
2021/01/21 11:15:16;;;;;;;2.42;1.30;;;10.10;99.90;;;;;;5107877;28;20193;-73
2021/01/21 11:17:44;;;;;;;3.50;1.40;;;10.10;99.90;;;;;;5108058;28;20462;-73
2021/01/21 11:20:13;;;;;;;2.17;1.30;;;10.20;99.90;;;;;;5106583;28;20073;-73
2021/01/21 11:22:42;;;;;;;1.60;1.27;;;10.20;99.90;;;;;;5108085;28;20449;-75
2021/01/21 11:25:13;;;;;;;1.45;1.15;;;10.00;99.90;;;;;;5103699;28;20441;-73
2021/01/21 11:28:00;;;;;;;1.30;1.10;;;10.00;99.90;;;;;;5118439;27;20043;-73
2021/01/21 11:30:27;;;;;;;1.75;1.30;;;10.00;99.90;;;;;;5108068;27;20551;-75
2021/01/21 11:32:54;;;;;;;1.10;1.00;;;10.00;99.90;;;;;;5097424;28;20077;-74
2021/01/21 11:35:21;;;;;;;1.60;1.08;;;10.10;99.90;;;;;;5105550;28;20071;-73
2021/01/21 11:37:47;;;;;;;2.38;1.45;;;10.20;99.90;;;;;;5102364;28;20055;-74
2021/01/21 11:40:14;;;;;;;1.00;1.00;;;10.20;99.90;;;;;;5105989;28;20105;-73
2021/01/21 11:42:43;;;;;;;1.83;1.05;;;10.30;99.90;;;;;;5107327;28;20748;-73
2021/01/21 11:45:10;;;;;;;2.95;1.20;;;10.40;99.90;;;;;;5106627;28;20044;-73
2021/01/21 11:47:41;;;;;;;2.08;1.60;;;10.30;99.60;;;;;;5107132;28;20066;-73
2021/01/21 11:50:14;;;;;;;2.10;1.30;;;10.30;99.90;;;;;;5106139;28;20452;-73
2021/01/21 11:52:41;;;;;;;1.30;1.20;;;10.30;99.90;;;;;;5108275;28;20047;-73
2021/01/21 11:55:09;;;;;;;1.25;1.15;;;10.30;99.90;;;;;;5107264;28;20047;-74
2021/01/21 11:57:39;;;;;;;1.73;1.27;;;10.30;99.90;;;;;;5107171;28;20127;-74
2021/01/21 12:00:16;;;;;;;6.63;1.30;;;10.40;99.90;;;;;;5106781;28;20363;-73
2021/01/21 12:02:42;;;;;;;2.55;1.48;;;10.50;98.90;;;;;;5106295;28;20051;-74
2021/01/21 12:05:15;;;;;;;1.55;1.20;;;10.40;99.90;;;;;;5101990;28;20097;-74
2021/01/21 12:07:42;;;;;;;1.20;1.10;;;10.30;99.90;;;;;;5099154;28;20123;-74
2021/01/21 12:10:10;;;;;;;1.75;1.30;;;10.40;99.90;;;;;;5103082;28;20062;-73
2021/01/21 12:12:37;;;;;;;1.83;1.52;;;10.30;99.90;;;;;;5089626;28;20052;-75
2021/01/21 12:15:04;;;;;;;1.60;1.10;;;10.30;99.90;;;;;;5100947;28;20100;-73
2021/01/21 12:17:30;;;;;;;1.90;1.38;;;10.30;99.90;;;;;;5106255;28;20040;-75
2021/01/21 12:19:57;;;;;;;1.58;1.20;;;10.20;99.90;;;;;;5106152;28;20044;-73
2021/01/21 12:22:28;;;;;;;2.20;1.35;;;10.10;99.90;;;;;;5106447;28;20043;-74
2021/01/21 12:24:57;;;;;;;1.63;1.33;;;10.00;99.90;;;;;;5094869;28;20148;-73
2021/01/21 12:27:24;;;;;;;1.50;1.40;;;10.10;99.90;;;;;;5097614;27;20044;-74
2021/01/21 12:29:53;;;;;;;2.17;1.40;;;10.00;99.90;;;;;;5100102;28;20054;-74
2021/01/21 12:32:20;;;;;;;1.90;1.30;;;10.10;99.90;;;;;;5100534;28;20061;-75
2021/01/21 12:34:47;;;;;;;1.88;1.20;;;10.10;99.90;;;;;;5097773;28;20066;-73
2021/01/21 12:37:13;;;;;;;1.98;1.42;;;10.10;99.90;;;;;;5092758;28;20047;-75
2021/01/21 12:39:40;;;;;;;1.80;1.20;;;10.00;99.90;;;;;;5091856;28;20048;-74
2021/01/21 12:42:07;;;;;;;1.65;1.20;;;9.90;99.90;;;;;;5090099;28;20446;-74
2021/01/21 12:44:33;;;;;;;2.88;1.30;;;9.90;99.90;;;;;;5095701;28;20047;-74
2021/01/21 12:47:02;;;;;;;3.20;1.90;;;9.90;99.90;;;;;;5093439;28;20113;-75
2021/01/21 12:49:31;;;;;;;1.35;1.25;;;9.80;99.90;;;;;;5097652;28;20118;-75
2021/01/21 12:51:58;;;;;;;3.95;1.70;;;9.70;99.90;;;;;;5102735;28;20043;-74
2021/01/21 12:54:25;;;;;;;1.92;1.33;;;9.70;99.90;;;;;;5103992;28;20048;-75
2021/01/21 12:56:51;;;;;;;1.70;1.50;;;9.70;99.90;;;;;;5103673;28;20043;-74
2021/01/21 12:59:18;;;;;;;3.33;1.45;;;9.80;99.90;;;;;;5105459;27;20048;-74
2021/01/21 13:01:45;;;;;;;2.83;1.25;;;9.90;99.90;;;;;;5104317;28;20158;-74
2021/01/21 13:04:14;;;;;;;2.17;1.25;;;9.90;99.90;;;;;;5105484;28;20150;-75
2021/01/21 13:06:46;;;;;;;1.65;1.45;;;9.80;99.90;;;;;;5105281;28;20071;-74
2021/01/21 13:09:14;;;;;;;1.80;1.50;;;9.80;99.90;;;;;;5106299;28;20047;-74
2021/01/21 13:11:40;;;;;;;2.60;1.77;;;9.80;99.90;;;;;;5102792;28;20043;-74